Time;durP1;ratioP1;P1;durP2;ratioP2;P2;SDS_P1;SDS_P2;PMS_P1;PMS_P2;Temp;Humidity;BMP_temperature;BMP_pressure;BME280_temperature;BME280_humidity;BME280_pressure;Samples;Min_cycle;Max_cycle;Signal;HPM_P1;HPM_P2
2022/06/27 00:01:08;;;;;;;9.00;6.30;;;18.00;99.90;;;;;;5115033;27;20059;-70
2022/06/27 00:03:35;;;;;;;9.10;6.22;;;18.00;99.90;;;;;;5133367;27;20096;-70
2022/06/27 00:06:02;;;;;;;9.10;5.85;;;17.90;99.90;;;;;;5115465;28;20051;-70
2022/06/27 00:08:31;;;;;;;8.23;5.97;;;17.90;99.90;;;;;;5115614;28;20057;-69
2022/06/27 00:10:58;;;;;;;10.48;6.47;;;17.90;99.90;;;;;;5133164;28;20096;-69
2022/06/27 00:13:24;;;;;;;8.48;5.60;;;17.90;99.90;;;;;;5115433;28;20047;-69
2022/06/27 00:15:51;;;;;;;7.60;5.93;;;17.80;99.90;;;;;;5115394;28;20095;-70
2022/06/27 00:18:18;;;;;;;9.38;6.65;;;17.80;99.90;;;;;;5133436;28;20509;-71
2022/06/27 00:20:45;;;;;;;9.07;6.10;;;17.80;99.90;;;;;;5124155;28;20058;-69
2022/06/27 00:23:12;;;;;;;13.43;6.25;;;17.80;99.90;;;;;;5115049;28;20054;-69
2022/06/27 00:25:40;;;;;;;7.10;5.75;;;17.90;99.90;;;;;;5114864;27;20051;-69
2022/06/27 00:28:07;;;;;;;9.35;6.25;;;17.80;99.90;;;;;;5138564;27;20054;-69
2022/06/27 00:30:34;;;;;;;10.18;5.95;;;17.80;99.90;;;;;;5137801;27;20100;-69
2022/06/27 00:33:01;;;;;;;9.52;6.40;;;17.80;99.90;;;;;;5137286;27;20047;-70
2022/06/27 00:35:28;;;;;;;7.55;6.57;;;17.80;99.90;;;;;;5137384;27;20050;-70
2022/06/27 00:37:55;;;;;;;7.20;6.35;;;17.80;99.90;;;;;;5119677;27;20058;-70
2022/06/27 00:40:22;;;;;;;7.45;6.32;;;17.70;99.90;;;;;;5137150;27;20111;-70
2022/06/27 00:42:50;;;;;;;9.13;6.22;;;17.70;99.90;;;;;;5118716;27;20058;-69
2022/06/27 00:45:17;;;;;;;7.93;6.20;;;17.70;99.90;;;;;;5136910;27;20100;-68
2022/06/27 00:47:44;;;;;;;8.80;6.60;;;17.70;99.90;;;;;;5137870;27;20068;-70
2022/06/27 00:50:11;;;;;;;7.95;6.15;;;17.70;99.90;;;;;;5119045;27;20047;-70
2022/06/27 00:52:38;;;;;;;8.73;6.60;;;17.70;99.90;;;;;;5136871;27;20043;-68
2022/06/27 00:55:06;;;;;;;9.75;6.47;;;17.70;99.90;;;;;;5119637;27;20055;-69
2022/06/27 00:57:34;;;;;;;10.98;5.90;;;17.70;99.90;;;;;;5118857;27;20046;-70
2022/06/27 01:00:04;;;;;;;8.68;6.70;;;17.60;99.90;;;;;;5118483;27;20566;-69
2022/06/27 01:02:30;;;;;;;10.20;7.22;;;17.60;99.90;;;;;;5126835;27;20042;-69
2022/06/27 01:04:57;;;;;;;9.20;6.78;;;17.60;99.90;;;;;;5139213;27;20050;-69
2022/06/27 01:07:25;;;;;;;9.38;7.15;;;17.60;99.90;;;;;;5139197;27;20058;-70
2022/06/27 01:09:53;;;;;;;8.52;6.20;;;17.60;99.90;;;;;;5158182;27;20046;-70
2022/06/27 01:12:21;;;;;;;8.90;7.03;;;17.60;99.90;;;;;;5137837;27;20486;-69
2022/06/27 01:14:48;;;;;;;8.93;6.75;;;17.60;99.90;;;;;;5118180;27;20490;-70
2022/06/27 01:17:17;;;;;;;8.57;7.03;;;17.50;99.90;;;;;;5118970;27;20047;-70
2022/06/27 01:19:44;;;;;;;9.43;7.40;;;17.50;99.90;;;;;;5118748;27;20051;-70
2022/06/27 01:22:12;;;;;;;8.57;7.22;;;17.50;99.90;;;;;;5134997;27;20085;-70
2022/06/27 01:24:39;;;;;;;10.45;7.82;;;17.50;99.90;;;;;;5118434;27;20411;-70
2022/06/27 01:27:07;;;;;;;11.23;7.40;;;17.50;99.90;;;;;;5118703;27;20055;-71
2022/06/27 01:29:34;;;;;;;8.40;6.93;;;17.40;99.90;;;;;;5136344;27;20047;-70
2022/06/27 01:32:01;;;;;;;11.50;8.18;;;17.40;99.90;;;;;;5136350;27;20441;-69
2022/06/27 01:34:28;;;;;;;11.20;8.32;;;17.40;99.90;;;;;;5139848;27;20586;-66
2022/06/27 01:36:55;;;;;;;10.75;8.40;;;17.40;99.90;;;;;;5126606;27;20044;-67
2022/06/27 01:39:24;;;;;;;10.65;7.85;;;17.40;99.90;;;;;;5145104;27;20108;-69
2022/06/27 01:41:53;;;;;;;9.98;7.50;;;17.40;99.90;;;;;;5141140;27;20055;-69
2022/06/27 01:44:21;;;;;;;11.77;7.80;;;17.40;99.90;;;;;;5118687;27;20043;-68
2022/06/27 01:46:50;;;;;;;8.48;7.35;;;17.40;99.90;;;;;;5136446;27;20406;-69
2022/06/27 01:49:18;;;;;;;15.00;7.90;;;17.40;99.90;;;;;;5136011;27;20483;-69
2022/06/27 01:51:46;;;;;;;11.27;7.85;;;17.40;99.90;;;;;;5136645;27;20051;-69
2022/06/27 01:54:14;;;;;;;10.52;8.55;;;17.40;99.90;;;;;;5136209;27;20050;-69
2022/06/27 01:56:46;;;;;;;11.27;8.25;;;17.40;99.90;;;;;;5117306;27;20043;-70
2022/06/27 01:59:15;;;;;;;11.88;8.25;;;17.40;99.90;;;;;;5152105;27;20046;-70
2022/06/27 02:01:42;;;;;;;10.30;8.23;;;17.40;99.90;;;;;;5155833;27;20047;-69
2022/06/27 02:04:11;;;;;;;9.57;7.65;;;17.40;99.90;;;;;;5117119;27;20062;-68
2022/06/27 02:06:38;;;;;;;9.90;7.68;;;17.40;99.90;;;;;;5117945;27;20047;-70
2022/06/27 02:09:08;;;;;;;9.93;8.30;;;17.50;99.90;;;;;;5117803;27;20100;-69
2022/06/27 02:11:36;;;;;;;10.75;7.35;;;17.50;99.90;;;;;;5126954;27;20498;-69
2022/06/27 02:14:05;;;;;;;10.85;8.77;;;17.50;99.90;;;;;;5138204;27;20058;-69
2022/06/27 02:16:32;;;;;;;11.60;7.82;;;17.50;99.90;;;;;;5156627;27;20110;-69
2022/06/27 02:18:59;;;;;;;11.75;8.95;;;17.50;99.90;;;;;;5138434;27;20447;-70
2022/06/27 02:21:29;;;;;;;10.02;8.52;;;17.40;99.90;;;;;;5137577;27;20054;-70
2022/06/27 02:23:56;;;;;;;12.23;8.13;;;17.40;99.90;;;;;;5137040;27;20058;-70
2022/06/27 02:26:25;;;;;;;10.55;8.77;;;17.40;99.90;;;;;;5133823;27;20047;-70
2022/06/27 02:28:53;;;;;;;10.70;8.57;;;17.40;99.90;;;;;;5117447;27;20047;-71
2022/06/27 02:31:23;;;;;;;9.68;8.68;;;17.50;99.90;;;;;;5117032;27;20058;-69
2022/06/27 02:33:51;;;;;;;12.80;9.32;;;17.50;99.90;;;;;;5116833;27;20054;-69
2022/06/27 02:36:20;;;;;;;10.98;8.98;;;17.40;99.90;;;;;;5135777;27;20051;-69
2022/06/27 02:38:51;;;;;;;11.05;8.85;;;17.40;99.90;;;;;;5117081;27;20078;-69
2022/06/27 02:41:20;;;;;;;;;;;17.40;99.90;;;;;;5117696;27;20055;-68
2022/06/27 02:43:49;;;;;;;13.70;10.00;;;17.40;99.90;;;;;;5135164;27;19965;-69
2022/06/27 02:46:16;;;;;;;11.55;9.30;;;17.40;99.90;;;;;;5134923;27;20054;-70
2022/06/27 02:48:48;;;;;;;14.38;9.88;;;17.30;99.90;;;;;;5135286;27;20043;-69
2022/06/27 02:51:19;;;;;;;11.43;8.98;;;17.40;99.90;;;;;;5135378;27;20049;-71
2022/06/27 02:53:53;;;;;;;11.25;9.48;;;17.30;99.90;;;;;;5134196;27;20055;-70
2022/06/27 02:56:26;;;;;;;11.45;10.05;;;17.30;99.90;;;;;;5133426;27;20447;-69
2022/06/27 02:59:01;;;;;;;14.88;9.82;;;17.30;99.90;;;;;;5155443;27;20050;-70
2022/06/27 03:01:30;;;;;;;12.13;9.88;;;17.30;99.90;;;;;;5137909;27;20129;-69
2022/06/27 03:03:59;;;;;;;12.35;10.02;;;17.20;99.90;;;;;;5132548;27;20047;-69
2022/06/27 03:06:27;;;;;;;16.35;9.45;;;17.20;99.90;;;;;;5115947;27;20107;-69
2022/06/27 03:08:54;;;;;;;14.70;9.90;;;17.20;99.90;;;;;;5116856;27;20433;-70
2022/06/27 03:11:23;;;;;;;13.55;9.95;;;17.20;99.90;;;;;;5134617;27;20055;-69
2022/06/27 03:13:51;;;;;;;14.65;11.05;;;17.20;99.90;;;;;;5115966;27;20043;-69
2022/06/27 03:16:19;;;;;;;12.88;9.07;;;17.30;99.90;;;;;;5116366;27;20047;-69
2022/06/27 03:18:47;;;;;;;10.95;9.00;;;17.30;99.90;;;;;;5134883;27;20058;-70
2022/06/27 03:21:17;;;;;;;11.50;9.38;;;17.30;99.90;;;;;;5134201;27;20438;-71
2022/06/27 03:23:44;;;;;;;;;;;17.30;99.90;;;;;;5134762;27;20528;-71
2022/06/27 03:26:11;;;;;;;13.38;9.82;;;17.30;99.90;;;;;;5125266;27;19934;-70
2022/06/27 03:28:38;;;;;;;11.70;10.45;;;17.30;99.90;;;;;;5136068;27;20482;-69
2022/06/27 03:31:05;;;;;;;13.50;10.57;;;17.30;99.90;;;;;;5135479;27;20047;-71
2022/06/27 03:33:32;;;;;;;14.98;10.77;;;17.30;99.90;;;;;;5140075;27;20047;-70
2022/06/27 03:35:59;;;;;;;14.73;12.27;;;17.30;99.90;;;;;;5134080;27;20047;-70
2022/06/27 03:38:27;;;;;;;15.25;11.20;;;17.30;99.90;;;;;;5115851;27;20088;-70
2022/06/27 03:40:54;;;;;;;15.70;10.85;;;17.30;99.90;;;;;;5133967;27;20460;-70
2022/06/27 03:43:22;;;;;;;15.55;11.82;;;17.20;99.90;;;;;;5153196;27;20451;-70
2022/06/27 03:45:49;;;;;;;14.95;12.38;;;17.20;99.90;;;;;;5136283;27;20123;-70
2022/06/27 03:50:57;;;;;;;14.82;11.27;;;17.20;99.90;;;;;;5135460;27;20042;-69
2022/06/27 03:53:24;;;;;;;14.45;11.65;;;17.20;99.90;;;;;;5135690;27;20050;-70
2022/06/27 03:55:53;;;;;;;16.17;12.70;;;17.20;99.90;;;;;;5135696;27;20051;-69
2022/06/27 03:58:20;;;;;;;15.60;13.00;;;17.20;99.90;;;;;;5136184;27;20107;-70
2022/06/27 04:00:46;;;;;;;18.20;13.93;;;17.20;99.90;;;;;;5153355;27;20091;-69
2022/06/27 04:03:13;;;;;;;16.85;12.38;;;17.20;99.90;;;;;;5131323;27;20099;-69
2022/06/27 04:05:40;;;;;;;16.45;12.70;;;17.20;99.90;;;;;;5134260;28;20105;-70
2022/06/27 04:08:08;;;;;;;16.02;13.13;;;17.20;99.90;;;;;;5115704;28;20050;-70
2022/06/27 04:10:35;;;;;;;16.50;12.88;;;17.20;99.90;;;;;;5115424;28;20051;-69
2022/06/27 04:13:03;;;;;;;17.30;11.88;;;17.20;99.90;;;;;;5115345;28;20194;-70
2022/06/27 04:15:30;;;;;;;15.32;12.80;;;17.20;99.90;;;;;;5134397;28;20051;-70
2022/06/27 04:17:57;;;;;;;20.08;13.90;;;17.20;99.90;;;;;;5115095;28;20131;-70
2022/06/27 04:20:24;;;;;;;17.58;13.55;;;17.20;99.90;;;;;;5123630;28;20388;-70
2022/06/27 04:22:51;;;;;;;17.98;13.07;;;17.20;99.90;;;;;;5115486;28;20051;-71
2022/06/27 04:25:18;;;;;;;16.25;13.18;;;17.30;99.90;;;;;;5115297;28;20130;-69
2022/06/27 04:27:45;;;;;;;17.63;13.90;;;17.30;99.90;;;;;;5133687;28;20043;-68
2022/06/27 04:30:16;;;;;;;17.15;13.80;;;17.30;99.90;;;;;;5115263;28;20134;-69
2022/06/27 04:32:45;;;;;;;17.08;13.07;;;17.30;99.90;;;;;;5133586;28;20085;-70
2022/06/27 04:35:12;;;;;;;18.60;13.15;;;17.30;99.90;;;;;;5133571;28;20134;-70
2022/06/27 04:37:42;;;;;;;18.33;13.10;;;17.40;99.90;;;;;;5133137;28;20047;-71
2022/06/27 04:40:11;;;;;;;16.40;12.23;;;17.30;99.90;;;;;;5133285;28;20574;-71
2022/06/27 04:42:38;;;;;;;16.27;11.85;;;17.30;99.90;;;;;;5133660;28;20079;-70
2022/06/27 04:45:11;;;;;;;17.73;11.52;;;17.30;99.90;;;;;;5114589;28;20048;-71
2022/06/27 04:47:40;;;;;;;15.00;12.15;;;17.30;99.90;;;;;;5134164;28;20051;-70
2022/06/27 04:50:09;;;;;;;13.53;10.93;;;17.40;99.90;;;;;;5133590;28;20487;-70
2022/06/27 04:52:38;;;;;;;13.70;10.63;;;17.40;99.90;;;;;;5114821;28;20085;-71
2022/06/27 04:55:07;;;;;;;11.23;9.65;;;17.40;99.90;;;;;;5115028;28;20559;-70
2022/06/27 04:57:34;;;;;;;12.80;9.95;;;17.40;99.90;;;;;;5115373;28;20055;-70
2022/06/27 05:00:02;;;;;;;14.50;10.30;;;17.40;99.90;;;;;;5133249;28;20404;-71
2022/06/27 05:02:29;;;;;;;14.23;9.65;;;17.40;99.90;;;;;;5123889;27;20050;-71
2022/06/27 05:04:57;;;;;;;13.77;9.55;;;17.50;99.90;;;;;;5135645;27;20038;-70
2022/06/27 05:07:25;;;;;;;13.02;9.43;;;17.40;99.90;;;;;;5135222;27;20046;-71
2022/06/27 05:09:53;;;;;;;14.13;8.93;;;17.40;99.90;;;;;;5135765;27;20395;-70
2022/06/27 05:12:20;;;;;;;8.65;7.55;;;17.50;99.90;;;;;;5154884;27;20471;-71
2022/06/27 05:14:47;;;;;;;10.38;7.70;;;17.50;99.90;;;;;;5139176;27;20047;-69
2022/06/27 05:17:14;;;;;;;10.52;7.53;;;17.60;99.90;;;;;;5134907;27;20047;-69
2022/06/27 05:19:41;;;;;;;8.10;6.30;;;17.50;99.90;;;;;;5136411;27;20058;-69
2022/06/27 05:22:10;;;;;;;8.77;6.53;;;17.60;99.90;;;;;;5119118;27;20494;-69
2022/06/27 05:24:37;;;;;;;9.65;6.22;;;17.50;99.90;;;;;;5136459;27;20073;-69
2022/06/27 05:27:04;;;;;;;9.15;6.68;;;17.60;99.90;;;;;;5136544;27;20129;-69
2022/06/27 05:29:32;;;;;;;7.57;6.55;;;17.60;99.90;;;;;;5118492;27;20100;-69
2022/06/27 05:31:59;;;;;;;7.55;5.95;;;17.60;99.90;;;;;;5122820;27;20116;-69
2022/06/27 05:34:26;;;;;;;7.82;5.93;;;17.60;99.90;;;;;;5138135;27;20095;-70
2022/06/27 05:36:54;;;;;;;8.50;5.72;;;17.70;99.90;;;;;;5157808;27;20048;-71
2022/06/27 05:39:22;;;;;;;7.90;5.45;;;17.70;99.90;;;;;;5138926;27;20072;-70
2022/06/27 05:41:50;;;;;;;6.55;5.28;;;17.70;99.90;;;;;;5157718;27;20066;-69
2022/06/27 05:44:17;;;;;;;6.43;5.20;;;17.80;99.90;;;;;;5158058;27;20129;-71
2022/06/27 05:46:44;;;;;;;6.68;5.22;;;17.80;99.90;;;;;;5147813;27;20050;-70
2022/06/27 05:49:11;;;;;;;7.00;5.13;;;17.90;99.90;;;;;;5121914;27;20154;-71
2022/06/27 05:51:40;;;;;;;6.65;4.60;;;17.90;99.90;;;;;;5146966;27;20394;-71
2022/06/27 05:54:08;;;;;;;4.65;4.10;;;18.00;99.90;;;;;;5150519;27;20125;-71
2022/06/27 05:56:39;;;;;;;4.93;4.05;;;18.10;99.90;;;;;;5131441;27;20486;-71
2022/06/27 05:59:06;;;;;;;5.63;4.28;;;18.20;99.90;;;;;;5142144;27;20051;-72
2022/06/27 06:01:33;;;;;;;6.35;3.75;;;18.40;99.90;;;;;;5128630;27;20062;-70
2022/06/27 06:04:00;;;;;;;6.90;3.95;;;18.70;99.90;;;;;;5149072;27;20131;-71
2022/06/27 06:06:28;;;;;;;5.50;4.07;;;19.00;99.90;;;;;;5131653;27;20053;-70
2022/06/27 06:08:55;;;;;;;8.35;3.97;;;19.10;99.90;;;;;;5148864;27;20050;-69
2022/06/27 06:11:23;;;;;;;4.20;2.90;;;19.10;99.90;;;;;;5130718;27;20047;-70
2022/06/27 06:13:52;;;;;;;4.40;2.72;;;19.20;99.90;;;;;;5129357;27;20049;-71
2022/06/27 06:16:20;;;;;;;3.78;2.50;;;19.20;99.90;;;;;;5149804;27;20057;-69
2022/06/27 06:18:49;;;;;;;4.93;2.97;;;19.10;99.90;;;;;;5130375;27;20046;-71
2022/06/27 06:21:16;;;;;;;2.90;2.20;;;18.90;99.90;;;;;;5146696;27;20066;-71
2022/06/27 06:23:43;;;;;;;3.08;2.42;;;18.90;99.90;;;;;;5145646;27;20067;-71
2022/06/27 06:26:10;;;;;;;5.70;2.72;;;18.70;99.90;;;;;;5125433;27;20047;-72
2022/06/27 06:28:37;;;;;;;3.90;2.30;;;18.70;99.90;;;;;;5145385;27;20065;-70
2022/06/27 06:31:07;;;;;;;5.45;2.70;;;18.60;99.90;;;;;;5132083;27;20551;-70
2022/06/27 06:33:34;;;;;;;4.15;2.03;;;18.50;99.90;;;;;;5130063;27;20115;-70
2022/06/27 06:36:02;;;;;;;3.58;1.90;;;18.50;99.90;;;;;;5126693;27;20043;-70
2022/06/27 06:38:29;;;;;;;2.28;1.67;;;18.60;99.90;;;;;;5146861;27;20462;-69
2022/06/27 06:40:56;;;;;;;5.60;2.30;;;18.60;99.90;;;;;;5147274;27;20449;-70
2022/06/27 06:43:23;;;;;;;5.28;2.20;;;18.60;99.90;;;;;;5131947;27;20043;-71
2022/06/27 06:45:50;;;;;;;4.75;2.30;;;18.60;99.90;;;;;;5128520;27;20043;-71
2022/06/27 06:48:19;;;;;;;3.20;2.20;;;18.60;99.90;;;;;;5147836;27;20051;-71
2022/06/27 06:50:46;;;;;;;2.75;2.00;;;18.70;99.90;;;;;;5151687;27;20050;-70
2022/06/27 06:53:13;;;;;;;3.40;2.03;;;18.70;99.90;;;;;;5128682;27;20050;-71
2022/06/27 06:55:40;;;;;;;2.70;1.67;;;18.70;99.90;;;;;;5128347;27;20047;-70
2022/06/27 06:58:07;;;;;;;2.95;1.80;;;18.70;99.90;;;;;;5132824;27;20096;-70
2022/06/27 07:00:36;;;;;;;5.20;2.72;;;18.70;99.90;;;;;;5129899;27;20513;-71
2022/06/27 07:03:03;;;;;;;5.13;3.45;;;18.60;99.90;;;;;;5132879;27;20059;-71
2022/06/27 07:05:32;;;;;;;5.70;3.40;;;18.60;99.90;;;;;;5145641;27;20075;-71
2022/06/27 07:08:00;;;;;;;4.88;3.28;;;18.60;99.90;;;;;;5149116;27;20086;-70
2022/06/27 07:10:28;;;;;;;5.88;3.38;;;18.50;99.90;;;;;;5148220;27;20175;-70
2022/06/27 07:12:55;;;;;;;7.05;3.40;;;18.60;99.90;;;;;;5132767;27;20552;-70
2022/06/27 07:15:22;;;;;;;4.88;3.35;;;18.60;99.90;;;;;;5148250;27;20091;-70
2022/06/27 07:17:52;;;;;;;5.47;3.50;;;18.70;99.90;;;;;;5127634;27;20043;-69
2022/06/27 07:20:20;;;;;;;5.07;3.20;;;18.70;99.90;;;;;;5144228;27;20115;-70
2022/06/27 07:22:49;;;;;;;4.60;3.20;;;18.80;99.90;;;;;;5125985;27;20047;-70
2022/06/27 07:25:17;;;;;;;3.70;2.90;;;18.80;99.90;;;;;;5128203;27;20070;-70
2022/06/27 07:27:45;;;;;;;4.10;2.83;;;18.80;99.90;;;;;;5128883;27;20062;-70
2022/06/27 07:30:13;;;;;;;5.82;3.08;;;18.80;99.90;;;;;;5133337;27;20487;-70
2022/06/27 07:32:42;;;;;;;5.40;2.60;;;18.90;99.90;;;;;;5129545;27;20384;-71
2022/06/27 07:35:11;;;;;;;6.03;2.58;;;18.90;99.90;;;;;;5147854;27;20066;-69
2022/06/27 07:37:40;;;;;;;3.70;2.60;;;18.80;99.90;;;;;;5146263;27;20417;-70
2022/06/27 07:40:10;;;;;;;3.25;2.35;;;18.80;99.90;;;;;;5147522;27;20521;-69
2022/06/27 07:42:37;;;;;;;6.15;2.83;;;18.80;99.90;;;;;;5126674;27;20055;-71
2022/06/27 07:45:05;;;;;;;4.53;2.78;;;18.80;99.90;;;;;;5147851;27;20046;-71
2022/06/27 07:47:32;;;;;;;2.90;2.20;;;18.80;99.90;;;;;;5129351;27;20050;-71
2022/06/27 07:49:59;;;;;;;5.05;2.63;;;18.70;99.90;;;;;;5129640;27;20047;-70
2022/06/27 07:52:26;;;;;;;3.45;2.70;;;18.70;99.90;;;;;;5128924;27;20054;-78
2022/06/27 07:54:52;;;;;;;5.13;2.22;;;18.60;99.90;;;;;;5148631;27;20506;-75
2022/06/27 07:57:21;;;;;;;4.28;3.10;;;18.50;99.90;;;;;;5129990;27;20061;-81
2022/06/27 07:59:51;;;;;;;5.18;2.85;;;18.50;99.90;;;;;;5130045;27;20050;-79
2022/06/27 08:02:18;;;;;;;5.03;2.63;;;18.60;99.90;;;;;;5147712;27;20047;-77
2022/06/27 08:04:45;;;;;;;3.35;2.38;;;18.60;99.90;;;;;;5129267;27;20098;-78
2022/06/27 08:07:12;;;;;;;5.15;2.97;;;18.60;99.90;;;;;;5127355;27;20477;-77
2022/06/27 08:09:39;;;;;;;6.63;2.70;;;18.60;99.90;;;;;;5151906;27;20049;-77
2022/06/27 08:12:06;;;;;;;3.60;1.98;;;18.70;99.90;;;;;;5148119;27;20080;-76
2022/06/27 08:14:36;;;;;;;4.60;2.42;;;18.80;99.90;;;;;;5126444;27;20498;-74
2022/06/27 08:17:03;;;;;;;5.25;3.13;;;18.80;99.90;;;;;;5126369;27;20047;-77
2022/06/27 08:19:30;;;;;;;3.67;2.42;;;18.90;99.90;;;;;;5146538;27;20047;-77
2022/06/27 08:21:58;;;;;;;3.33;2.50;;;19.00;99.90;;;;;;5145901;27;20054;-78
2022/06/27 08:24:25;;;;;;;3.75;2.33;;;19.10;99.90;;;;;;5146419;27;20051;-77
2022/06/27 08:26:52;;;;;;;3.45;2.20;;;19.20;99.90;;;;;;5147799;27;20038;-76
2022/06/27 08:29:20;;;;;;;5.43;2.67;;;19.30;99.90;;;;;;5148257;27;20095;-78
2022/06/27 08:31:52;;;;;;;5.05;2.78;;;19.40;99.90;;;;;;5146240;27;20043;-79
2022/06/27 08:34:21;;;;;;;4.53;2.80;;;19.60;99.90;;;;;;5130853;27;20055;-77
2022/06/27 08:36:47;;;;;;;5.45;3.00;;;19.70;99.90;;;;;;5126675;27;20051;-77
2022/06/27 08:39:16;;;;;;;8.00;3.03;;;19.80;99.90;;;;;;5142745;27;20055;-77
2022/06/27 08:41:47;;;;;;;4.05;3.10;;;19.90;99.90;;;;;;5146264;27;20043;-77
2022/06/27 08:44:14;;;;;;;4.53;2.72;;;20.00;99.90;;;;;;5125470;27;20043;-77
2022/06/27 08:46:45;;;;;;;4.18;3.08;;;20.00;99.90;;;;;;5127083;27;20047;-77
2022/06/27 08:49:15;;;;;;;4.68;3.35;;;20.00;99.90;;;;;;5131354;27;20046;-77
2022/06/27 08:51:44;;;;;;;4.88;3.33;;;20.00;99.90;;;;;;5131105;27;20054;-75
2022/06/27 08:54:10;;;;;;;3.55;3.03;;;20.10;99.90;;;;;;5157027;27;20089;-78
2022/06/27 08:56:37;;;;;;;4.68;3.33;;;20.00;99.90;;;;;;5148297;27;20061;-77
2022/06/27 08:59:05;;;;;;;6.53;3.45;;;20.00;99.90;;;;;;5147988;27;20046;-76
2022/06/27 09:01:32;;;;;;;4.75;3.35;;;19.90;99.90;;;;;;5149852;27;20091;-78
2022/06/27 09:04:01;;;;;;;6.65;3.70;;;20.00;99.90;;;;;;5127997;27;20123;-77
2022/06/27 09:06:32;;;;;;;17.27;3.95;;;20.10;99.90;;;;;;5130411;27;20034;-78
2022/06/27 09:09:06;;;;;;;5.75;3.40;;;20.10;99.90;;;;;;5132708;27;20095;-77
2022/06/27 09:11:35;;;;;;;6.60;3.25;;;20.30;99.90;;;;;;5126319;27;20043;-77
2022/06/27 09:14:03;;;;;;;6.15;4.00;;;20.50;99.90;;;;;;5150298;27;20508;-79
2022/06/27 09:16:30;;;;;;;5.65;3.70;;;20.70;99.90;;;;;;5153177;27;20038;-79
2022/06/27 09:18:58;;;;;;;6.05;3.85;;;20.90;99.90;;;;;;5129750;27;20054;-79
2022/06/27 09:21:27;;;;;;;6.65;4.30;;;21.10;99.90;;;;;;5127167;27;20466;-79
2022/06/27 09:23:58;;;;;;;6.60;3.90;;;21.30;99.90;;;;;;5126444;27;20082;-79
2022/06/27 09:26:27;;;;;;;5.68;4.03;;;21.40;99.90;;;;;;5146064;27;20050;-80
2022/06/27 09:28:56;;;;;;;6.72;4.07;;;21.50;99.90;;;;;;5133253;27;20383;-79
2022/06/27 09:31:35;;;;;;;5.13;4.18;;;21.40;99.90;;;;;;5128483;27;20440;-77
2022/06/27 09:34:05;;;;;;;7.15;4.80;;;21.20;99.90;;;;;;5147525;27;20051;-77
2022/06/27 09:36:34;;;;;;;5.00;4.00;;;20.90;99.90;;;;;;5134738;27;20420;-77
2022/06/27 09:39:03;;;;;;;7.00;4.43;;;20.70;99.90;;;;;;5129300;27;20050;-78
2022/06/27 09:41:32;;;;;;;7.23;4.53;;;20.70;99.90;;;;;;5129734;27;20403;-78
2022/06/27 09:44:04;;;;;;;7.28;4.47;;;20.60;99.90;;;;;;5133218;27;20138;-76
2022/06/27 09:46:35;;;;;;;6.53;4.15;;;20.50;99.90;;;;;;5156992;27;20043;-77
2022/06/27 09:49:04;;;;;;;5.28;3.97;;;20.40;99.90;;;;;;5151765;27;20141;-78
2022/06/27 09:51:34;;;;;;;6.78;3.85;;;20.30;99.90;;;;;;5152155;27;20047;-79
2022/06/27 09:54:09;;;;;;;4.65;3.53;;;20.30;99.90;;;;;;5157695;27;20056;-78
2022/06/27 09:56:38;;;;;;;5.13;3.53;;;20.40;99.90;;;;;;5129826;27;20051;-78
2022/06/27 09:59:06;;;;;;;7.30;3.00;;;20.40;99.90;;;;;;5148295;27;20486;-76
2022/06/27 10:01:35;;;;;;;4.20;2.90;;;20.40;99.90;;;;;;5135046;27;20054;-76
2022/06/27 10:04:04;;;;;;;3.78;2.75;;;20.40;99.90;;;;;;5127970;27;20573;-76
2022/06/27 10:06:31;;;;;;;5.22;2.72;;;20.40;99.90;;;;;;5128913;27;20034;-75
2022/06/27 10:09:00;;;;;;;3.25;2.53;;;20.30;99.90;;;;;;5146671;27;20402;-80
2022/06/27 10:11:28;;;;;;;4.50;2.33;;;20.30;99.90;;;;;;5132659;27;20043;-80
2022/06/27 10:14:20;;;;;;;4.88;2.28;;;20.40;99.90;;;;;;5146701;27;20050;-80
2022/06/27 10:16:55;;;;;;;5.60;2.67;;;20.40;99.90;;;;;;5132937;27;20050;-81
2022/06/27 10:19:24;;;;;;;4.53;2.80;;;20.40;99.90;;;;;;5133485;27;20078;-79
2022/06/27 10:21:52;;;;;;;3.40;2.22;;;20.40;99.90;;;;;;5151522;27;20129;-80
2022/06/27 10:24:35;;;;;;;3.67;2.13;;;20.40;99.90;;;;;;5119709;27;20565;-77
2022/06/27 10:27:06;;;;;;;5.40;2.70;;;20.60;99.90;;;;;;5131479;27;20047;-77
2022/06/27 10:29:47;;;;;;;4.35;2.20;;;20.70;99.90;;;;;;5133444;27;20093;-78
2022/06/27 10:32:41;;;;;;;4.28;2.28;;;20.80;99.90;;;;;;5147537;27;20121;-78
2022/06/27 10:35:14;;;;;;;5.45;2.70;;;20.90;99.90;;;;;;5130354;27;20126;-76
2022/06/27 10:37:42;;;;;;;5.15;2.50;;;20.80;99.90;;;;;;5125737;27;20096;-77
2022/06/27 10:40:52;;;;;;;4.20;1.90;;;20.80;99.90;;;;;;5130093;27;20050;-77
2022/06/27 10:43:43;;;;;;;4.57;2.53;;;20.90;99.90;;;;;;5133000;27;20195;-78
2022/06/27 10:46:28;;;;;;;;;;;21.00;99.90;;;;;;5135159;27;20046;-76
2022/06/27 10:48:56;;;;;;;2.58;1.50;;;21.00;99.90;;;;;;5149683;27;19919;-77
2022/06/27 10:51:26;;;;;;;3.38;1.75;;;21.00;99.90;;;;;;5131143;27;20529;-76
2022/06/27 10:54:10;;;;;;;2.17;1.40;;;21.00;99.90;;;;;;5134831;27;20048;-77
2022/06/27 10:56:39;;;;;;;3.25;2.00;;;21.00;99.90;;;;;;5147508;27;20046;-78
2022/06/27 10:59:29;;;;;;;3.10;1.73;;;21.10;99.90;;;;;;5126776;27;20074;-78
2022/06/27 11:02:17;;;;;;;3.38;1.83;;;21.20;99.90;;;;;;5129838;27;20077;-77
2022/06/27 11:04:46;;;;;;;5.60;1.92;;;21.30;99.90;;;;;;5127387;27;20047;-79
2022/06/27 11:07:13;;;;;;;3.67;1.80;;;21.40;99.90;;;;;;5131649;27;20042;-78
2022/06/27 11:09:43;;;;;;;3.85;2.10;;;21.40;99.90;;;;;;5147191;27;20095;-78
2022/06/27 11:12:11;;;;;;;5.25;2.25;;;21.60;99.90;;;;;;5131181;27;20051;-78
2022/06/27 11:14:44;;;;;;;3.47;1.85;;;21.60;99.90;;;;;;5131246;27;20051;-77
2022/06/27 11:17:35;;;;;;;3.30;2.00;;;21.80;99.90;;;;;;5154380;27;20055;-76
2022/06/27 11:20:16;;;;;;;7.28;2.70;;;21.80;99.90;;;;;;5127624;27;20047;-78
2022/06/27 11:22:44;;;;;;;5.85;2.22;;;21.90;99.90;;;;;;5149009;27;20054;-79
2022/06/27 11:25:12;;;;;;;3.35;2.28;;;21.80;99.90;;;;;;5128246;27;20054;-74
2022/06/27 11:27:45;;;;;;;3.35;2.00;;;21.80;99.90;;;;;;5129414;27;20047;-74
2022/06/27 11:33:15;;;;;;;2.45;1.58;;;21.80;99.90;;;;;;5148855;27;20042;-75
2022/06/27 11:35:42;;;;;;;6.60;2.35;;;21.80;99.90;;;;;;5132678;27;20043;-74
2022/06/27 11:38:10;;;;;;;4.20;2.13;;;21.70;99.90;;;;;;5130599;27;20062;-74
2022/06/27 11:40:37;;;;;;;61.70;6.07;;;21.60;99.90;;;;;;5129626;27;20107;-74
2022/06/27 11:43:04;;;;;;;7.90;2.20;;;21.50;99.90;;;;;;5146303;27;20513;-73
2022/06/27 11:45:40;;;;;;;3.97;2.08;;;21.50;99.90;;;;;;5128984;27;20107;-74
2022/06/27 11:48:14;;;;;;;6.93;1.70;;;21.50;99.90;;;;;;5147776;27;20057;-74
2022/06/27 11:50:42;;;;;;;3.58;1.40;;;21.40;99.90;;;;;;5146872;27;20047;-73
2022/06/27 11:53:09;;;;;;;4.13;1.60;;;21.40;99.90;;;;;;5126783;27;20490;-75
2022/06/27 11:55:36;;;;;;;2.95;1.60;;;21.30;99.90;;;;;;5127164;27;20091;-76
2022/06/27 11:58:03;;;;;;;3.75;1.80;;;21.30;99.90;;;;;;5129650;27;20043;-75
2022/06/27 12:00:32;;;;;;;6.57;1.80;;;21.30;99.90;;;;;;5144483;27;20490;-76
2022/06/27 12:03:05;;;;;;;3.83;1.55;;;21.40;99.90;;;;;;5128571;27;20051;-74
2022/06/27 12:05:34;;;;;;;4.35;2.28;;;21.40;99.90;;;;;;5143510;27;20069;-75
2022/06/27 12:08:05;;;;;;;4.00;1.95;;;21.40;99.90;;;;;;5140878;27;20043;-75
2022/06/27 12:10:45;;;;;;;3.20;1.70;;;21.40;99.90;;;;;;5133650;27;20077;-75
2022/06/27 12:13:14;;;;;;;2.92;1.88;;;21.30;99.90;;;;;;5145795;27;20047;-75
2022/06/27 12:15:44;;;;;;;2.30;1.50;;;21.30;99.90;;;;;;5142375;27;20107;-74
2022/06/27 12:18:13;;;;;;;3.47;1.75;;;21.20;99.90;;;;;;5149674;27;20375;-74
2022/06/27 12:20:43;;;;;;;3.53;1.70;;;21.20;99.90;;;;;;5127191;27;20051;-73
2022/06/27 12:23:10;;;;;;;5.63;1.88;;;21.10;99.90;;;;;;5131909;27;20050;-75
2022/06/27 12:25:37;;;;;;;5.38;2.38;;;21.10;99.90;;;;;;5150833;27;20099;-74
2022/06/27 12:28:05;;;;;;;2.58;1.80;;;21.10;99.90;;;;;;5151607;27;20509;-73
2022/06/27 12:30:32;;;;;;;2.08;1.45;;;21.20;99.90;;;;;;5132991;27;20423;-74
2022/06/27 12:32:59;;;;;;;5.68;1.60;;;21.30;99.90;;;;;;5133112;27;20050;-75
2022/06/27 12:35:26;;;;;;;4.07;1.70;;;21.30;99.90;;;;;;5131388;27;20055;-73
2022/06/27 12:37:59;;;;;;;2.40;1.40;;;21.40;99.90;;;;;;5131453;27;20103;-74
2022/06/27 12:40:26;;;;;;;3.20;1.95;;;21.40;99.90;;;;;;5129418;27;20563;-74
2022/06/27 12:42:53;;;;;;;3.03;2.08;;;21.50;99.90;;;;;;5127128;27;20054;-74
2022/06/27 12:45:20;;;;;;;3.38;2.13;;;21.60;99.90;;;;;;5125667;27;20043;-74
2022/06/27 12:47:47;;;;;;;4.82;2.10;;;21.60;99.90;;;;;;5132095;27;20051;-73
2022/06/27 12:50:14;;;;;;;4.95;2.17;;;21.70;99.90;;;;;;5124489;27;20066;-75
2022/06/27 12:52:41;;;;;;;4.35;2.13;;;21.70;99.90;;;;;;5128219;27;20039;-74
2022/06/27 12:55:10;;;;;;;3.35;2.35;;;21.70;99.90;;;;;;5134566;27;20436;-74
2022/06/27 12:57:37;;;;;;;3.65;2.85;;;21.70;99.90;;;;;;5128961;27;20096;-74